Time;durP1;ratioP1;P1;durP2;ratioP2;P2;SDS_P1;SDS_P2;PMS_P1;PMS_P2;Temp;Humidity;BMP_temperature;BMP_pressure;BME280_temperature;BME280_humidity;BME280_pressure;Samples;Min_cycle;Max_cycle;Signal;HPM_P1;HPM_P2
2023/07/27 00:01:16;;;;;;;2.33;1.05;;;16.70;99.90;;;;;;5093907;28;20039;-57
2023/07/27 00:03:41;;;;;;;3.45;1.35;;;16.80;99.90;;;;;;5094177;28;20046;-48
2023/07/27 00:06:07;;;;;;;4.28;1.00;;;16.70;99.90;;;;;;5093959;28;20104;-49
2023/07/27 00:08:33;;;;;;;2.83;1.33;;;16.80;99.90;;;;;;5094008;28;20452;-48
2023/07/27 00:10:58;;;;;;;8.00;1.42;;;16.70;99.90;;;;;;5093769;28;20496;-56
2023/07/27 00:13:24;;;;;;;9.95;1.67;;;16.70;99.90;;;;;;5093893;28;20027;-58
2023/07/27 00:15:49;;;;;;;2.50;1.30;;;16.60;99.90;;;;;;5093763;28;20024;-51
2023/07/27 00:18:15;;;;;;;7.10;1.48;;;16.70;99.90;;;;;;5093934;28;20465;-55
2023/07/27 00:20:40;;;;;;;3.78;1.40;;;16.60;99.90;;;;;;5093764;28;20051;-52
2023/07/27 00:23:06;;;;;;;3.35;1.30;;;16.60;99.90;;;;;;5093223;28;20036;-48
2023/07/27 00:25:32;;;;;;;2.20;1.20;;;16.60;99.90;;;;;;5093392;28;20073;-50
2023/07/27 00:27:57;;;;;;;5.65;1.10;;;16.60;99.90;;;;;;5093494;28;20028;-54
2023/07/27 00:30:23;;;;;;;2.70;1.13;;;16.60;99.90;;;;;;5093317;28;20024;-53
2023/07/27 00:32:49;;;;;;;2.58;1.20;;;16.60;99.90;;;;;;5093527;28;20084;-48
2023/07/27 00:35:14;;;;;;;3.20;1.10;;;16.50;99.90;;;;;;5093286;28;20630;-55
2023/07/27 00:37:41;;;;;;;1.75;1.00;;;16.50;99.90;;;;;;5093197;28;20407;-51
2023/07/27 00:40:07;;;;;;;1.70;1.00;;;16.50;99.90;;;;;;5093020;28;20370;-48
2023/07/27 00:42:32;;;;;;;2.03;0.80;;;16.50;99.90;;;;;;5093136;28;20092;-47
2023/07/27 00:44:58;;;;;;;2.25;0.80;;;16.50;99.90;;;;;;5093135;28;20084;-49
2023/07/27 00:47:24;;;;;;;1.25;0.57;;;16.50;99.90;;;;;;5093086;28;20024;-52
2023/07/27 00:49:49;;;;;;;1.60;0.80;;;16.50;99.90;;;;;;5093048;28;20024;-53
2023/07/27 00:52:15;;;;;;;3.50;0.85;;;16.50;99.90;;;;;;5092931;28;20380;-57
2023/07/27 00:54:41;;;;;;;1.85;0.68;;;16.50;99.90;;;;;;5092942;28;20085;-52
2023/07/27 00:57:07;;;;;;;4.47;0.93;;;16.50;99.90;;;;;;5093036;28;20027;-52
2023/07/27 00:59:33;;;;;;;1.52;0.90;;;16.50;99.90;;;;;;5093177;28;20048;-48
2023/07/27 01:01:59;;;;;;;3.53;0.90;;;16.50;99.90;;;;;;5092936;28;20060;-55
2023/07/27 01:04:25;;;;;;;3.17;1.13;;;16.50;99.90;;;;;;5092864;28;20061;-49
2023/07/27 01:06:51;;;;;;;7.15;1.30;;;16.50;99.90;;;;;;5092532;28;20047;-56
2023/07/27 01:09:17;;;;;;;2.97;0.95;;;16.50;99.90;;;;;;5092874;28;20069;-52
2023/07/27 01:12:07;;;;;;;3.17;1.10;;;16.40;99.90;;;;;;5092644;28;20071;-55
2023/07/27 01:14:51;;;;;;;5.00;1.13;;;16.40;99.90;;;;;;5092498;28;20021;-56
2023/07/27 01:17:22;;;;;;;5.28;1.05;;;16.40;99.90;;;;;;5092713;28;20028;-52
2023/07/27 01:20:02;;;;;;;1.52;0.70;;;16.40;99.90;;;;;;5092268;28;20016;-54
2023/07/27 01:22:31;;;;;;;3.95;0.88;;;16.40;99.90;;;;;;5092364;28;20557;-55
2023/07/27 01:25:26;;;;;;;3.95;1.20;;;16.30;99.90;;;;;;5092442;28;20078;-55
2023/07/27 01:28:14;;;;;;;3.08;1.13;;;16.40;99.90;;;;;;5092369;28;20507;-52
2023/07/27 01:30:50;;;;;;;4.38;1.05;;;16.40;99.90;;;;;;5092169;28;20050;-50
2023/07/27 01:33:21;;;;;;;6.57;1.20;;;16.40;99.90;;;;;;5092553;28;20028;-53
2023/07/27 01:35:58;;;;;;;2.20;0.75;;;16.40;99.90;;;;;;5090959;28;20024;-55
2023/07/27 01:38:25;;;;;;;3.05;0.88;;;16.40;99.90;;;;;;5092329;28;20066;-48
2023/07/27 01:40:53;;;;;;;2.88;1.08;;;16.40;99.90;;;;;;5092251;28;20047;-52
2023/07/27 01:43:20;;;;;;;1.58;0.80;;;16.40;99.90;;;;;;5092192;28;20024;-54
2023/07/27 01:45:46;;;;;;;2.97;0.98;;;16.40;99.90;;;;;;5092108;28;20042;-50
2023/07/27 01:48:13;;;;;;;2.95;1.10;;;16.40;99.90;;;;;;5091759;28;20433;-54
2023/07/27 01:50:40;;;;;;;2.72;1.20;;;16.40;99.90;;;;;;5091859;28;20024;-54
2023/07/27 01:53:06;;;;;;;4.65;1.50;;;16.40;99.90;;;;;;5091775;28;20099;-54
2023/07/27 01:55:34;;;;;;;4.88;1.70;;;16.40;99.90;;;;;;5091675;28;20179;-54
2023/07/27 01:58:01;;;;;;;7.55;1.80;;;16.40;99.90;;;;;;5091598;28;20557;-56
2023/07/27 02:00:28;;;;;;;5.50;1.95;;;16.30;99.90;;;;;;5091899;28;20028;-55
2023/07/27 02:02:54;;;;;;;4.70;1.80;;;16.30;99.90;;;;;;5091698;28;20507;-56
2023/07/27 02:05:21;;;;;;;5.35;2.03;;;16.30;99.90;;;;;;5091752;28;20496;-49
2023/07/27 02:07:47;;;;;;;6.07;1.88;;;16.30;99.90;;;;;;5091756;28;20559;-51
2023/07/27 02:10:17;;;;;;;4.00;1.25;;;16.30;99.90;;;;;;5091989;28;20020;-50
2023/07/27 02:12:46;;;;;;;2.90;1.17;;;16.30;99.90;;;;;;5091973;28;20020;-54
2023/07/27 02:15:17;;;;;;;6.93;1.45;;;16.30;99.90;;;;;;5091832;28;20039;-53
2023/07/27 02:17:49;;;;;;;4.90;1.33;;;16.40;99.90;;;;;;5091666;28;20028;-51
2023/07/27 02:20:19;;;;;;;2.65;1.08;;;16.30;99.90;;;;;;5091461;28;20031;-48
2023/07/27 02:22:47;;;;;;;4.75;1.20;;;16.40;99.90;;;;;;5091609;28;20114;-55
2023/07/27 02:25:13;;;;;;;3.63;1.70;;;16.40;99.90;;;;;;5091128;28;20016;-54
2023/07/27 02:27:39;;;;;;;2.70;1.00;;;16.40;99.90;;;;;;5091478;28;20038;-52
2023/07/27 02:30:05;;;;;;;2.80;1.17;;;16.40;99.90;;;;;;5091226;28;20479;-53
2023/07/27 02:32:32;;;;;;;2.55;0.82;;;16.40;99.90;;;;;;5090923;28;20526;-56
2023/07/27 02:34:58;;;;;;;2.63;1.10;;;16.40;99.90;;;;;;5091179;28;20445;-52
2023/07/27 02:37:23;;;;;;;3.05;0.93;;;16.40;99.90;;;;;;5091111;28;20012;-55
2023/07/27 02:39:49;;;;;;;2.33;0.95;;;16.40;99.90;;;;;;5091082;28;20392;-56
2023/07/27 02:42:15;;;;;;;3.35;1.02;;;16.40;99.90;;;;;;5089401;28;20032;-56
2023/07/27 02:44:40;;;;;;;3.40;1.42;;;16.40;99.90;;;;;;5090796;28;20024;-53
2023/07/27 02:47:06;;;;;;;2.17;1.10;;;16.50;99.90;;;;;;5090787;28;20031;-53
2023/07/27 02:49:31;;;;;;;2.13;1.10;;;16.50;99.90;;;;;;5090874;28;20032;-54
2023/07/27 02:51:58;;;;;;;1.88;0.90;;;16.50;99.90;;;;;;5090786;28;20024;-53
2023/07/27 02:54:24;;;;;;;2.33;1.15;;;16.50;99.90;;;;;;5090843;28;20016;-56
2023/07/27 02:56:50;;;;;;;5.72;1.10;;;16.50;99.90;;;;;;5090757;28;20031;-59
2023/07/27 02:59:15;;;;;;;4.68;0.95;;;16.50;99.90;;;;;;5090737;28;20338;-49
2023/07/27 03:01:41;;;;;;;6.32;1.02;;;16.60;99.90;;;;;;5090541;28;20063;-51
2023/07/27 03:04:06;;;;;;;2.13;0.85;;;16.60;99.90;;;;;;5089310;28;20027;-54
2023/07/27 03:06:32;;;;;;;1.45;0.75;;;16.60;99.90;;;;;;5090605;28;20109;-51
2023/07/27 03:08:58;;;;;;;2.33;0.90;;;16.60;99.90;;;;;;5090673;28;20052;-54
2023/07/27 03:11:23;;;;;;;4.90;0.70;;;16.60;99.90;;;;;;5090508;28;20039;-50
2023/07/27 03:13:50;;;;;;;3.53;0.85;;;16.60;99.90;;;;;;5090539;28;20107;-56
2023/07/27 03:16:15;;;;;;;1.52;0.57;;;16.60;99.90;;;;;;5090230;28;20043;-52
2023/07/27 03:18:41;;;;;;;1.75;0.82;;;16.60;99.90;;;;;;5090460;28;20024;-55
2023/07/27 03:21:07;;;;;;;3.22;0.52;;;16.60;99.90;;;;;;5090626;28;20027;-55
2023/07/27 03:23:33;;;;;;;2.90;0.80;;;16.60;99.90;;;;;;5090175;28;20103;-57
2023/07/27 03:25:59;;;;;;;1.10;0.70;;;16.60;99.90;;;;;;5082115;28;20047;-54
2023/07/27 03:28:24;;;;;;;1.88;0.88;;;16.70;99.90;;;;;;5089852;28;20459;-54
2023/07/27 03:30:50;;;;;;;4.82;0.60;;;16.60;99.90;;;;;;5089790;28;20044;-58
2023/07/27 03:33:15;;;;;;;2.45;0.60;;;16.70;99.90;;;;;;5090152;28;20489;-54
2023/07/27 03:35:41;;;;;;;1.38;0.65;;;16.70;99.90;;;;;;5090133;28;20048;-55
2023/07/27 03:38:07;;;;;;;3.05;0.55;;;16.70;99.90;;;;;;5090301;28;20048;-50
2023/07/27 03:40:32;;;;;;;2.72;0.80;;;16.70;99.90;;;;;;5090072;28;20043;-55
2023/07/27 03:42:58;;;;;;;1.77;0.55;;;16.70;99.90;;;;;;5090027;28;20081;-55
2023/07/27 03:45:24;;;;;;;0.75;0.50;;;16.70;99.90;;;;;;5089877;28;20032;-55
2023/07/27 03:47:49;;;;;;;1.48;0.75;;;16.70;99.90;;;;;;5090174;28;20075;-57
2023/07/27 03:50:15;;;;;;;1.80;0.85;;;16.70;99.90;;;;;;5090019;28;20024;-54
2023/07/27 03:52:41;;;;;;;1.25;0.75;;;16.80;99.90;;;;;;5090236;28;20103;-55
2023/07/27 03:55:07;;;;;;;1.80;0.55;;;16.80;99.90;;;;;;5089894;28;20043;-56
2023/07/27 03:57:33;;;;;;;2.70;0.50;;;16.80;99.90;;;;;;5090008;28;20024;-53
2023/07/27 04:00:00;;;;;;;1.85;0.50;;;16.80;99.90;;;;;;5089908;28;20024;-52
2023/07/27 04:02:26;;;;;;;1.50;0.52;;;16.80;99.90;;;;;;5089540;28;20489;-55
2023/07/27 04:04:52;;;;;;;1.55;0.50;;;16.80;99.90;;;;;;5090175;28;20677;-53
2023/07/27 04:07:18;;;;;;;1.40;0.40;;;16.80;99.90;;;;;;5090237;28;20502;-56
2023/07/27 04:09:44;;;;;;;1.23;0.63;;;16.90;99.90;;;;;;5089891;28;20056;-51
2023/07/27 04:12:10;;;;;;;2.67;0.47;;;16.90;99.90;;;;;;5089985;28;20105;-54
2023/07/27 04:14:37;;;;;;;1.67;1.13;;;16.80;99.90;;;;;;5089841;28;20050;-52
2023/07/27 04:17:02;;;;;;;1.42;0.47;;;16.90;99.90;;;;;;5090051;28;20032;-53
2023/07/27 04:19:28;;;;;;;6.03;0.45;;;16.90;99.90;;;;;;5090144;28;20028;-52
2023/07/27 04:21:54;;;;;;;0.30;0.30;;;16.90;99.90;;;;;;5088069;28;20461;-52
2023/07/27 04:24:20;;;;;;;2.83;0.40;;;16.90;99.90;;;;;;5083957;28;20081;-53
2023/07/27 04:26:45;;;;;;;2.90;0.60;;;16.90;99.90;;;;;;5089864;28;20365;-55
2023/07/27 04:29:11;;;;;;;1.60;0.70;;;17.00;99.90;;;;;;5088594;28;20022;-55
2023/07/27 04:31:36;;;;;;;1.85;0.60;;;16.90;99.90;;;;;;5089390;28;20117;-56
2023/07/27 04:34:02;;;;;;;1.30;0.60;;;16.90;99.90;;;;;;5089665;28;20420;-55
2023/07/27 04:36:28;;;;;;;1.25;0.45;;;17.00;99.90;;;;;;5088457;28;20118;-55
2023/07/27 04:38:53;;;;;;;2.88;0.55;;;17.00;99.90;;;;;;5089864;28;20027;-56
2023/07/27 04:41:19;;;;;;;3.22;0.85;;;17.00;99.90;;;;;;5091406;28;20146;-55
2023/07/27 04:43:45;;;;;;;2.28;0.50;;;17.00;99.90;;;;;;5093077;28;20024;-58
2023/07/27 04:46:10;;;;;;;0.65;0.50;;;17.00;99.90;;;;;;5093710;28;20032;-54
2023/07/27 04:48:36;;;;;;;5.40;0.60;;;16.90;99.90;;;;;;5091707;28;20047;-50
2023/07/27 04:51:02;;;;;;;1.95;0.57;;;17.00;99.90;;;;;;5093367;28;20517;-53
2023/07/27 04:53:28;;;;;;;1.55;0.50;;;17.00;99.90;;;;;;5093003;28;20028;-55
2023/07/27 04:55:53;;;;;;;2.03;0.50;;;17.00;99.90;;;;;;5093253;28;20024;-53
2023/07/27 04:58:19;;;;;;;1.45;0.47;;;17.00;99.90;;;;;;5093153;28;20039;-51
2023/07/27 05:00:45;;;;;;;1.33;0.40;;;17.10;99.90;;;;;;5092857;28;20024;-54
2023/07/27 05:03:10;;;;;;;2.15;0.50;;;17.10;99.90;;;;;;5093035;28;20409;-51
2023/07/27 05:05:45;;;;;;;2.78;0.60;;;17.10;99.90;;;;;;5092920;28;20035;-51
2023/07/27 05:08:10;;;;;;;3.20;0.70;;;17.10;99.90;;;;;;5093137;28;20032;-51
2023/07/27 05:10:39;;;;;;;1.33;0.40;;;17.10;99.90;;;;;;5092966;28;20366;-51
2023/07/27 05:13:05;;;;;;;2.53;0.63;;;17.10;99.90;;;;;;5092832;28;20097;-51
2023/07/27 05:15:31;;;;;;;1.40;0.40;;;17.20;99.90;;;;;;5092921;28;20439;-52
2023/07/27 05:17:57;;;;;;;1.48;0.55;;;17.10;99.90;;;;;;5093309;28;20020;-55
2023/07/27 05:20:22;;;;;;;1.05;0.40;;;17.20;99.90;;;;;;5092879;28;20020;-54
2023/07/27 05:22:48;;;;;;;5.45;0.68;;;17.20;99.90;;;;;;5092738;28;20081;-53
2023/07/27 05:25:14;;;;;;;1.63;0.65;;;17.20;99.90;;;;;;5092763;28;20377;-50
2023/07/27 05:27:40;;;;;;;1.17;0.40;;;17.20;99.90;;;;;;5092423;28;20028;-53
2023/07/27 05:30:06;;;;;;;1.05;0.50;;;17.20;99.90;;;;;;5092708;28;20376;-52
2023/07/27 05:32:31;;;;;;;5.00;0.65;;;17.20;99.90;;;;;;5092116;28;20055;-49
2023/07/27 05:34:57;;;;;;;4.32;0.60;;;17.20;99.90;;;;;;5092498;28;20536;-55
2023/07/27 05:37:23;;;;;;;0.75;0.50;;;17.20;99.90;;;;;;5092534;28;20024;-48
2023/07/27 05:39:48;;;;;;;1.20;0.52;;;17.20;99.90;;;;;;5092442;28;20070;-49
2023/07/27 05:42:14;;;;;;;3.42;0.60;;;17.20;99.90;;;;;;5092416;28;20032;-50
2023/07/27 05:44:39;;;;;;;3.03;0.57;;;17.30;99.90;;;;;;5092692;28;20085;-48
2023/07/27 05:47:05;;;;;;;2.03;0.50;;;17.30;99.90;;;;;;5092349;28;20384;-50
2023/07/27 05:49:32;;;;;;;2.53;0.63;;;17.30;99.90;;;;;;5092464;28;20020;-50
2023/07/27 05:51:58;;;;;;;1.17;0.50;;;17.40;99.90;;;;;;5092127;28;20054;-50
2023/07/27 05:54:23;;;;;;;1.02;0.47;;;17.30;99.90;;;;;;5092586;28;20407;-52
2023/07/27 05:56:49;;;;;;;2.78;0.60;;;17.30;99.90;;;;;;5091878;28;20036;-54
2023/07/27 05:59:15;;;;;;;2.78;0.75;;;17.30;99.90;;;;;;5092326;28;20363;-48
2023/07/27 06:01:40;;;;;;;2.50;0.70;;;17.30;99.90;;;;;;5092198;28;20036;-51
2023/07/27 06:04:06;;;;;;;1.02;0.50;;;17.30;99.90;;;;;;5092126;28;20024;-54
2023/07/27 06:06:32;;;;;;;2.17;0.60;;;17.40;99.90;;;;;;5091883;28;20065;-50
2023/07/27 06:08:58;;;;;;;3.40;0.60;;;17.30;99.90;;;;;;5091858;28;20117;-53
2023/07/27 06:11:23;;;;;;;3.47;0.68;;;17.40;99.90;;;;;;5092034;28;20024;-53
2023/07/27 06:13:49;;;;;;;3.88;0.50;;;17.40;99.90;;;;;;5090486;28;20549;-54
2023/07/27 06:16:15;;;;;;;1.63;0.50;;;17.40;99.90;;;;;;5071695;28;20025;-52
2023/07/27 06:18:41;;;;;;;1.30;0.30;;;17.40;99.90;;;;;;5071653;28;20028;-50
2023/07/27 06:21:07;;;;;;;0.80;0.50;;;17.50;99.90;;;;;;5071279;28;20017;-51
2023/07/27 06:23:32;;;;;;;3.38;0.50;;;17.50;99.90;;;;;;5071449;28;20377;-50
2023/07/27 06:25:58;;;;;;;0.52;0.30;;;17.50;99.90;;;;;;5070991;28;20475;-54
2023/07/27 06:28:23;;;;;;;2.22;0.88;;;17.50;99.90;;;;;;5071434;28;20070;-50
2023/07/27 06:30:49;;;;;;;0.98;0.40;;;17.50;99.90;;;;;;5071062;28;20044;-50
2023/07/27 06:33:15;;;;;;;0.40;0.30;;;17.50;99.90;;;;;;5072643;28;20024;-50
2023/07/27 06:35:41;;;;;;;0.22;0.20;;;17.50;99.90;;;;;;5085629;28;20028;-50
2023/07/27 06:38:07;;;;;;;2.35;0.65;;;17.60;99.90;;;;;;5074303;28;20107;-48
2023/07/27 06:40:32;;;;;;;0.88;0.40;;;17.60;99.90;;;;;;5070918;28;20033;-52
2023/07/27 06:42:58;;;;;;;0.77;0.30;;;17.60;99.90;;;;;;5070593;28;20101;-51
2023/07/27 06:45:24;;;;;;;1.05;0.40;;;17.70;99.90;;;;;;5070652;28;20036;-49
2023/07/27 06:47:50;;;;;;;2.08;0.43;;;17.70;99.90;;;;;;5070565;28;20043;-50
2023/07/27 06:50:15;;;;;;;0.70;0.30;;;17.70;99.90;;;;;;5070513;28;20036;-52
2023/07/27 06:52:41;;;;;;;4.80;0.45;;;17.80;99.90;;;;;;5070539;28;20097;-49
2023/07/27 06:55:07;;;;;;;1.02;0.43;;;17.80;99.90;;;;;;5070167;28;20017;-53
2023/07/27 06:57:33;;;;;;;0.68;0.32;;;17.90;99.90;;;;;;5070738;28;20028;-51
2023/07/27 06:59:58;;;;;;;0.52;0.40;;;17.90;99.90;;;;;;5070554;28;20027;-52
2023/07/27 07:02:24;;;;;;;1.42;0.50;;;17.90;99.90;;;;;;5069660;28;20424;-51
2023/07/27 07:04:50;;;;;;;0.60;0.38;;;17.90;99.90;;;;;;5069669;28;20086;-51
2023/07/27 07:07:15;;;;;;;0.63;0.43;;;18.00;99.90;;;;;;5067186;28;20017;-49
2023/07/27 07:09:42;;;;;;;1.00;0.52;;;18.00;99.90;;;;;;5068631;28;20437;-49
2023/07/27 07:12:08;;;;;;;0.30;0.30;;;18.00;99.90;;;;;;5070295;28;20016;-51
2023/07/27 07:14:34;;;;;;;1.65;0.30;;;18.00;99.90;;;;;;5070236;28;20029;-52
2023/07/27 07:17:00;;;;;;;0.75;0.30;;;18.00;99.90;;;;;;5070277;28;20040;-50
2023/07/27 07:19:26;;;;;;;0.32;0.30;;;18.00;99.90;;;;;;5070178;28;20477;-51
2023/07/27 07:21:52;;;;;;;1.42;0.43;;;18.00;99.90;;;;;;5070497;28;20048;-51
2023/07/27 07:24:18;;;;;;;1.65;0.32;;;18.00;99.90;;;;;;5070176;28;20027;-50
2023/07/27 07:26:45;;;;;;;2.35;0.63;;;18.00;99.90;;;;;;5070135;28;20036;-48
2023/07/27 07:29:11;;;;;;;0.52;0.38;;;17.90;99.90;;;;;;5070864;28;20115;-49
2023/07/27 07:31:37;;;;;;;1.85;0.55;;;17.90;99.90;;;;;;5070505;28;20127;-50
2023/07/27 07:34:04;;;;;;;1.10;0.40;;;17.90;99.90;;;;;;5079746;28;20051;-52
2023/07/27 07:36:29;;;;;;;5.85;0.50;;;18.00;99.90;;;;;;5085522;28;20043;-53
2023/07/27 07:38:55;;;;;;;0.35;0.22;;;18.10;99.90;;;;;;5080153;28;20031;-50
2023/07/27 07:41:22;;;;;;;4.00;0.50;;;18.10;99.90;;;;;;5070394;28;20082;-57
2023/07/27 07:43:47;;;;;;;2.10;0.60;;;18.10;99.90;;;;;;5070273;28;20021;-54
2023/07/27 07:46:14;;;;;;;2.08;0.40;;;18.10;99.90;;;;;;5070609;28;20107;-54
2023/07/27 07:48:39;;;;;;;0.50;0.45;;;18.10;99.90;;;;;;5069938;28;20044;-52
2023/07/27 07:51:12;;;;;;;1.73;0.60;;;18.10;99.90;;;;;;5070320;28;20380;-56
2023/07/27 07:53:37;;;;;;;0.80;0.50;;;18.00;99.90;;;;;;5069880;28;20554;-54
2023/07/27 07:56:04;;;;;;;3.03;0.52;;;18.00;99.90;;;;;;5069288;28;20038;-55
2023/07/27 07:58:30;;;;;;;1.13;0.52;;;18.00;99.90;;;;;;5069911;28;20021;-47
2023/07/27 08:00:56;;;;;;;0.82;0.50;;;18.00;99.90;;;;;;5069729;28;20032;-54
2023/07/27 08:03:22;;;;;;;0.90;0.55;;;18.00;99.90;;;;;;5069804;28;20041;-57
2023/07/27 08:05:47;;;;;;;1.15;0.57;;;18.00;99.90;;;;;;5069859;28;20032;-51
2023/07/27 08:08:13;;;;;;;2.45;0.55;;;18.00;99.90;;;;;;5070013;28;20032;-52
2023/07/27 08:10:39;;;;;;;1.95;0.60;;;17.90;99.90;;;;;;5069700;28;20107;-51
2023/07/27 08:13:04;;;;;;;1.73;0.50;;;18.00;99.90;;;;;;5070326;28;20056;-53
2023/07/27 08:15:30;;;;;;;3.53;0.80;;;18.00;99.90;;;;;;5071421;28;20032;-55
2023/07/27 08:17:56;;;;;;;1.88;0.50;;;18.00;99.90;;;;;;5073679;28;20108;-53
2023/07/27 08:20:21;;;;;;;2.95;0.60;;;18.00;99.90;;;;;;5073964;28;20033;-52
2023/07/27 08:22:47;;;;;;;1.55;0.40;;;18.10;99.90;;;;;;5072180;28;20085;-50
2023/07/27 08:25:14;;;;;;;2.72;0.45;;;18.10;99.90;;;;;;5073898;28;20473;-54
2023/07/27 08:27:40;;;;;;;0.43;0.40;;;18.10;99.90;;;;;;5073819;28;20041;-56
2023/07/27 08:30:07;;;;;;;3.58;0.60;;;18.10;99.90;;;;;;5073764;28;20386;-48
2023/07/27 08:32:33;;;;;;;1.70;0.40;;;18.10;99.90;;;;;;5072588;28;20044;-54
2023/07/27 08:34:58;;;;;;;2.50;0.50;;;18.10;99.90;;;;;;5088761;28;20027;-50
2023/07/27 08:37:24;;;;;;;0.68;0.40;;;18.10;99.90;;;;;;5091996;28;20115;-55
2023/07/27 08:39:50;;;;;;;0.95;0.45;;;18.10;99.90;;;;;;5091589;28;20111;-50
2023/07/27 08:42:16;;;;;;;2.75;0.50;;;18.20;99.90;;;;;;5092096;28;20038;-54
2023/07/27 08:44:45;;;;;;;2.63;0.60;;;18.20;99.90;;;;;;5091941;28;20443;-52
2023/07/27 08:47:11;;;;;;;1.65;0.50;;;18.20;99.90;;;;;;5091935;28;20494;-56
2023/07/27 08:49:38;;;;;;;0.60;0.40;;;18.20;99.90;;;;;;5092439;28;20028;-51
2023/07/27 08:52:04;;;;;;;1.30;0.60;;;18.20;99.90;;;;;;5093782;28;20085;-52
2023/07/27 08:54:30;;;;;;;2.25;0.60;;;18.20;99.90;;;;;;5093587;28;20020;-51
2023/07/27 08:56:55;;;;;;;1.25;0.43;;;18.20;99.90;;;;;;5093625;28;20028;-50
2023/07/27 08:59:24;;;;;;;2.60;0.43;;;18.20;99.90;;;;;;5093543;28;20121;-53
2023/07/27 09:01:50;;;;;;;1.50;0.50;;;18.30;99.90;;;;;;5093493;28;20472;-49
2023/07/27 09:04:16;;;;;;;2.38;0.60;;;18.30;99.90;;;;;;5093339;28;20020;-52
2023/07/27 09:06:48;;;;;;;0.90;0.35;;;18.30;99.90;;;;;;5093377;28;20047;-49
2023/07/27 09:09:25;;;;;;;1.58;0.70;;;18.30;99.90;;;;;;5093141;28;20430;-54
2023/07/27 09:11:54;;;;;;;2.72;0.40;;;18.30;99.90;;;;;;5093264;28;20102;-52
2023/07/27 09:14:20;;;;;;;1.00;0.30;;;18.30;99.90;;;;;;5088322;28;20028;-51
2023/07/27 09:16:48;;;;;;;1.63;0.40;;;18.40;99.90;;;;;;5084070;28;20029;-55
2023/07/27 09:19:17;;;;;;;5.03;0.50;;;18.40;99.90;;;;;;5093261;28;20024;-51
2023/07/27 09:21:45;;;;;;;0.40;0.40;;;18.40;99.90;;;;;;5093229;28;20116;-52
2023/07/27 09:24:16;;;;;;;2.65;0.52;;;18.30;99.90;;;;;;5092747;28;20118;-54
2023/07/27 09:26:51;;;;;;;1.77;0.63;;;18.30;99.90;;;;;;5092301;28;20036;-51
2023/07/27 09:29:19;;;;;;;0.85;0.47;;;18.30;99.90;;;;;;5092762;28;20383;-54
2023/07/27 09:31:54;;;;;;;3.30;1.00;;;18.20;99.90;;;;;;5092743;28;20132;-56
2023/07/27 09:34:20;;;;;;;3.47;0.70;;;18.30;99.90;;;;;;5092930;28;20128;-48
2023/07/27 09:36:47;;;;;;;5.80;0.88;;;18.20;99.90;;;;;;5092919;28;20027;-54
2023/07/27 09:39:14;;;;;;;4.20;0.73;;;18.30;99.90;;;;;;5092848;28;20035;-55
2023/07/27 09:41:44;;;;;;;1.65;0.40;;;18.40;99.90;;;;;;5092469;28;20032;-57
2023/07/27 09:44:14;;;;;;;1.58;0.63;;;18.40;99.90;;;;;;5092603;28;20028;-51
2023/07/27 09:46:41;;;;;;;1.58;0.63;;;18.40;99.90;;;;;;5092607;28;20042;-55
2023/07/27 09:49:07;;;;;;;2.13;0.50;;;18.30;99.90;;;;;;5092541;28;20055;-52
2023/07/27 09:51:34;;;;;;;1.63;0.80;;;18.30;99.90;;;;;;5092569;28;20060;-48
2023/07/27 09:54:00;;;;;;;3.40;0.60;;;18.30;99.90;;;;;;5092470;28;20024;-55
2023/07/27 09:56:27;;;;;;;2.17;0.60;;;18.40;99.90;;;;;;5092312;28;20077;-53
2023/07/27 09:58:53;;;;;;;1.73;0.50;;;18.40;99.90;;;;;;5090968;28;20078;-52
2023/07/27 10:01:19;;;;;;;1.42;0.60;;;18.50;99.90;;;;;;5092433;28;20059;-55
2023/07/27 10:03:45;;;;;;;1.92;0.50;;;18.60;99.90;;;;;;5092332;28;20052;-50
2023/07/27 10:06:15;;;;;;;1.55;0.65;;;18.70;99.90;;;;;;5092335;28;20430;-51
2023/07/27 10:08:42;;;;;;;0.25;0.25;;;18.80;99.90;;;;;;5091948;28;20361;-54
2023/07/27 10:11:08;;;;;;;0.88;0.32;;;18.80;99.90;;;;;;5092073;28;20051;-53
2023/07/27 10:13:40;;;;;;;0.40;0.30;;;18.90;99.90;;;;;;5092210;28;20058;-52
2023/07/27 10:16:11;;;;;;;0.85;0.30;;;19.10;99.90;;;;;;5092147;28;20048;-56
2023/07/27 10:18:42;;;;;;;0.68;0.40;;;19.20;99.90;;;;;;5091931;28;20028;-53
2023/07/27 10:21:27;;;;;;;2.17;0.50;;;19.30;99.90;;;;;;5091995;28;20048;-50
2023/07/27 10:23:54;;;;;;;2.40;0.50;;;19.40;99.90;;;;;;5092096;28;20062;-51
2023/07/27 10:26:21;;;;;;;1.10;0.40;;;19.30;99.90;;;;;;5091794;28;20024;-53
2023/07/27 10:28:48;;;;;;;1.38;0.52;;;19.10;99.90;;;;;;5091767;28;20077;-49
2023/07/27 10:31:23;;;;;;;2.28;0.52;;;19.00;99.90;;;;;;5091541;28;20104;-50
2023/07/27 10:34:07;;;;;;;4.65;1.50;;;18.90;99.90;;;;;;5091638;28;20564;-53
2023/07/27 10:36:58;;;;;;;0.98;0.60;;;18.80;99.90;;;;;;5091524;28;20049;-52
2023/07/27 10:39:35;;;;;;;2.85;0.50;;;18.80;99.90;;;;;;5090684;28;20031;-49
2023/07/27 10:42:07;;;;;;;3.05;0.63;;;18.70;99.90;;;;;;5091419;28;20089;-54
2023/07/27 10:44:55;;;;;;;3.65;0.70;;;18.60;99.90;;;;;;5091819;28;20120;-52
2023/07/27 10:47:26;;;;;;;1.05;0.60;;;18.60;99.90;;;;;;5091758;28;20115;-49
2023/07/27 10:49:57;;;;;;;3.38;0.70;;;18.60;99.90;;;;;;5091695;28;20082;-55
2023/07/27 10:52:28;;;;;;;1.55;0.63;;;18.50;99.90;;;;;;5091605;28;20024;-54
2023/07/27 10:54:56;;;;;;;2.03;0.70;;;18.50;99.90;;;;;;5091192;28;20046;-51
2023/07/27 10:57:23;;;;;;;1.92;0.75;;;18.50;99.90;;;;;;5091159;28;20021;-48
2023/07/27 10:59:51;;;;;;;1.75;0.60;;;18.60;99.90;;;;;;5091262;28;20031;-56
2023/07/27 11:02:22;;;;;;;1.27;0.70;;;18.50;99.90;;;;;;5090961;28;20476;-54
2023/07/27 11:04:53;;;;;;;2.20;0.57;;;18.50;99.90;;;;;;5091145;28;20024;-53
2023/07/27 11:07:33;;;;;;;3.00;0.70;;;18.60;99.90;;;;;;5076712;28;20098;-51
2023/07/27 11:10:04;;;;;;;3.70;0.90;;;18.60;99.90;;;;;;5091315;28;20024;-51
2023/07/27 11:12:30;;;;;;;2.88;0.82;;;18.50;99.90;;;;;;5090878;28;20035;-52
2023/07/27 11:15:16;;;;;;;1.67;0.70;;;18.60;99.90;;;;;;5091032;28;20024;-53
2023/07/27 11:17:42;;;;;;;1.98;0.77;;;18.60;99.90;;;;;;5090724;28;20020;-48
2023/07/27 11:20:10;;;;;;;2.97;1.00;;;18.60;99.90;;;;;;5090920;28;20032;-51
2023/07/27 11:22:36;;;;;;;2.83;0.50;;;18.50;99.90;;;;;;5090837;28;20035;-55
2023/07/27 11:25:05;;;;;;;4.32;0.82;;;18.50;99.90;;;;;;5090780;28;20107;-50
2023/07/27 11:27:31;;;;;;;1.58;0.60;;;18.50;99.90;;;;;;5090600;28;20365;-50
2023/07/27 11:30:00;;;;;;;3.40;1.00;;;18.40;99.90;;;;;;5090812;28;20038;-51
2023/07/27 11:32:26;;;;;;;4.78;1.05;;;18.40;99.90;;;;;;5090748;28;20058;-57
2023/07/27 11:34:55;;;;;;;3.58;1.33;;;18.30;99.90;;;;;;5090746;28;20103;-53
2023/07/27 11:37:29;;;;;;;1.75;0.68;;;18.40;99.90;;;;;;5090954;28;20016;-55
2023/07/27 11:39:55;;;;;;;2.05;0.82;;;18.30;99.90;;;;;;5090498;28;20028;-53
2023/07/27 11:42:35;;;;;;;5.03;1.20;;;18.30;99.90;;;;;;5089477;28;20085;-49
2023/07/27 11:45:00;;;;;;;3.00;1.40;;;18.40;99.90;;;;;;5090857;28;20021;-51
2023/07/27 11:47:26;;;;;;;2.63;0.90;;;18.50;99.90;;;;;;5090637;28;20434;-51
2023/07/27 11:49:55;;;;;;;3.42;0.85;;;18.50;99.90;;;;;;5091908;28;20028;-55
2023/07/27 11:52:21;;;;;;;8.02;1.67;;;18.50;99.90;;;;;;5094758;28;20016;-57
2023/07/27 11:54:51;;;;;;;3.13;0.88;;;18.50;99.90;;;;;;5094872;28;20064;-54
2023/07/27 11:57:17;;;;;;;3.65;0.93;;;18.60;99.90;;;;;;5094592;28;20058;-50
2023/07/27 11:59:59;;;;;;;5.65;1.25;;;18.60;99.90;;;;;;5094710;28;20059;-48
2023/07/27 12:02:25;;;;;;;3.38;0.77;;;18.60;99.90;;;;;;5094289;28;20082;-52
2023/07/27 12:04:51;;;;;;;1.90;0.98;;;18.60;99.90;;;;;;5094758;28;20024;-51
2023/07/27 12:07:18;;;;;;;3.45;0.95;;;18.60;99.90;;;;;;5094502;28;20032;-57
2023/07/27 12:09:43;;;;;;;3.35;1.20;;;18.60;99.90;;;;;;5094633;28;20023;-52
2023/07/27 12:12:09;;;;;;;4.70;0.93;;;18.60;99.90;;;;;;5094348;28;20398;-48
2023/07/27 12:14:35;;;;;;;6.68;0.82;;;18.60;99.90;;;;;;5094565;28;20054;-54
2023/07/27 12:17:10;;;;;;;2.40;0.90;;;18.60;99.90;;;;;;5094365;28;20388;-51
2023/07/27 12:19:36;;;;;;;6.38;1.33;;;18.60;99.90;;;;;;5092968;28;20076;-54
2023/07/27 12:22:02;;;;;;;4.22;0.80;;;18.60;99.90;;;;;;5094142;28;20102;-55
2023/07/27 12:24:27;;;;;;;7.15;1.20;;;18.70;99.90;;;;;;5090583;28;20041;-51
2023/07/27 12:26:53;;;;;;;3.95;1.38;;;18.60;99.90;;;;;;5092842;28;20028;-51
2023/07/27 12:29:19;;;;;;;5.32;1.20;;;18.60;99.90;;;;;;5092959;28;20025;-53
2023/07/27 12:31:44;;;;;;;4.35;0.95;;;18.60;99.90;;;;;;5092288;28;20504;-50
2023/07/27 12:34:10;;;;;;;7.97;1.50;;;18.60;99.90;;;;;;5092258;28;20039;-50
2023/07/27 12:36:36;;;;;;;4.47;1.25;;;18.60;99.90;;;;;;5092434;28;20101;-49
2023/07/27 12:39:01;;;;;;;2.03;0.82;;;18.70;99.90;;;;;;5092810;28;20150;-49
2023/07/27 12:41:27;;;;;;;6.20;1.25;;;18.70;99.90;;;;;;5091316;28;20044;-44
2023/07/27 12:43:55;;;;;;;4.40;0.82;;;18.80;99.90;;;;;;5081901;28;20024;-46
2023/07/27 12:46:20;;;;;;;2.90;1.00;;;18.80;99.90;;;;;;5075608;28;20029;-48
2023/07/27 12:48:46;;;;;;;2.60;1.00;;;18.80;99.90;;;;;;5073411;28;20388;-51